createdAt,value
2022-12-03T00:03:29.426Z,15.763794
2022-12-03T00:08:31.253Z,15.780742
2022-12-03T00:13:32.821Z,15.70227
2022-12-03T00:18:34.605Z,15.12517
2022-12-03T00:23:41.768Z,15.30806
2022-12-03T00:28:44.007Z,15.787012
2022-12-03T00:33:45.591Z,15.366138
2022-12-03T00:38:47.097Z,15.279198
2022-12-03T00:43:48.781Z,15.354672
2022-12-03T00:48:50.613Z,15.272128
2022-12-03T00:53:52.272Z,15.622304
2022-12-03T00:58:54.029Z,15.224472
2022-12-03T01:03:55.788Z,15.415572
2022-12-03T01:08:57.375Z,15.641098
2022-12-03T01:13:58.901Z,15.000806
2022-12-03T01:19:00.765Z,15.175662
2022-12-03T01:24:02.376Z,15.141494
2022-12-03T01:29:03.896Z,15.772438
2022-12-03T01:34:05.414Z,15.271422
2022-12-03T01:39:06.883Z,15.015718
2022-12-03T01:44:08.572Z,15.576222
2022-12-03T01:49:10.449Z,15.00071
2022-12-03T01:54:12.026Z,15.320776
2022-12-03T01:59:13.513Z,15.12825
2022-12-03T02:04:15.318Z,15.393942
2022-12-03T02:09:16.999Z,15.677288
2022-12-03T02:14:18.722Z,15.470746
2022-12-03T02:19:20.852Z,15.347344
2022-12-03T02:24:22.489Z,15.490598
2022-12-03T02:29:24.165Z,15.621232
2022-12-03T02:34:26.080Z,14.945536
2022-12-03T02:39:27.574Z,15.64331
2022-12-03T02:44:29.148Z,15.013072
2022-12-03T02:49:31.016Z,15.492634
2022-12-03T02:54:32.769Z,15.10681
2022-12-03T02:59:34.588Z,15.180778
2022-12-03T03:04:36.198Z,15.243714
2022-12-03T03:09:37.670Z,15.653012
2022-12-03T03:14:39.169Z,15.230212
2022-12-03T03:19:41.018Z,15.27681
2022-12-03T03:24:42.672Z,15.83441
2022-12-03T03:29:44.267Z,15.407362
2022-12-03T03:34:45.746Z,15.747198
2022-12-03T03:39:47.296Z,16.022416
2022-12-03T03:44:48.948Z,15.95119
2022-12-03T03:49:50.665Z,15.940416
2022-12-03T03:54:52.756Z,16.01456
2022-12-03T03:59:54.910Z,15.963632
2022-12-03T04:04:56.935Z,15.84589
2022-12-03T04:09:58.713Z,16.207002
2022-12-03T04:15:00.506Z,16.737586
2022-12-03T04:20:02.664Z,17.01891
2022-12-03T04:25:04.612Z,16.28618
2022-12-03T04:30:06.449Z,17.49531
2022-12-03T04:35:08.576Z,17.378964
2022-12-03T04:40:10.161Z,18.086468
2022-12-03T04:45:11.652Z,18.854356
2022-12-03T04:50:13.483Z,19.053408
2022-12-03T04:55:14.897Z,18.719108
2022-12-03T05:00:16.764Z,19.356186
2022-12-03T05:05:18.809Z,19.653034
2022-12-03T05:10:20.712Z,20.567922
2022-12-03T05:15:22.765Z,19.3681
2022-12-03T05:20:24.969Z,21.199654
2022-12-03T05:25:26.731Z,22.887222
2022-12-03T05:30:28.335Z,23.036854
2022-12-03T05:35:30.028Z,22.736084
2022-12-03T05:40:31.833Z,22.763196
2022-12-03T05:45:33.499Z,23.780576
2022-12-03T05:50:35.271Z,23.30963
2022-12-03T05:55:36.915Z,23.642872
2022-12-03T06:00:42.412Z,24.058848
2022-12-03T06:05:45.229Z,23.979398
2022-12-03T06:10:47.301Z,24.52206
2022-12-03T06:15:49.247Z,25.079974
2022-12-03T06:20:51.338Z,24.73726
2022-12-03T06:25:53.041Z,24.962286
2022-12-03T06:30:54.877Z,26.297942
2022-12-03T06:35:56.873Z,26.390676
2022-12-03T06:40:58.741Z,26.68283
2022-12-03T06:46:00.739Z,27.090218
2022-12-03T06:51:02.947Z,26.31865
2022-12-03T06:56:04.881Z,27.275606
2022-12-03T07:01:06.837Z,27.187348
2022-12-03T07:06:09.067Z,27.871284
2022-12-03T07:11:11.186Z,28.559414
2022-12-03T07:16:13.116Z,27.298552
2022-12-03T07:21:15.417Z,27.771968
2022-12-03T07:26:17.165Z,28.18268
2022-12-03T07:31:19.071Z,28.38746
2022-12-03T07:36:21.053Z,27.751912
2022-12-03T07:41:22.903Z,29.111372
2022-12-03T07:46:24.901Z,28.703536
2022-12-03T07:51:32.023Z,27.702234
2022-12-03T07:56:34.145Z,28.735764
2022-12-03T08:01:35.930Z,28.752984
2022-12-03T08:06:37.480Z,28.775252
2022-12-03T08:11:39.086Z,28.420162
2022-12-03T08:16:41.025Z,29.092402
2022-12-03T08:21:42.969Z,28.525218
2022-12-03T08:26:44.802Z,28.074774
2022-12-03T08:31:46.659Z,28.993968
2022-12-03T08:36:48.630Z,29.311334
2022-12-03T08:41:50.227Z,29.248452
2022-12-03T08:46:51.807Z,29.553226
2022-12-03T08:51:53.685Z,29.780532
2022-12-03T10:24:46.861Z,29.162494
2022-12-03T10:29:48.415Z,29.702398
2022-12-03T10:34:50.049Z,29.412184
2022-12-03T10:39:55.759Z,31.709292
2022-12-03T10:44:58.043Z,30.41795
2022-12-03T10:49:59.683Z,31.00017
2022-12-03T10:55:01.512Z,29.394556
2022-12-03T11:00:02.947Z,29.459854
2022-12-03T11:05:04.569Z,31.05225
2022-12-03T11:10:06.185Z,30.068126
2022-12-03T11:15:07.672Z,29.082482
2022-12-03T11:20:09.127Z,29.662258
2022-12-03T11:25:11.020Z,31.07342
2022-12-03T11:30:12.778Z,31.650808
2022-12-03T11:35:14.236Z,30.858476
2022-12-03T11:40:15.857Z,31.169208
2022-12-03T11:45:17.474Z,31.607764
2022-12-03T11:50:19.023Z,31.679494
2022-12-03T11:55:20.865Z,31.347106
2022-12-03T12:00:22.671Z,31.439378
2022-12-03T12:05:24.191Z,31.05335
2022-12-03T12:10:25.676Z,32.036158
2022-12-03T12:20:42.852Z,32.013646
2022-12-03T12:25:47.267Z,31.506454
2022-12-03T12:30:51.238Z,31.043864
2022-12-03T12:35:52.867Z,31.238086
2022-12-03T12:40:54.536Z,31.965746
2022-12-03T12:45:56.003Z,29.928644
2022-12-03T12:50:57.514Z,31.446882
2022-12-03T12:55:59.349Z,30.980956
2022-12-03T13:01:01.216Z,31.432308
2022-12-03T13:06:02.777Z,31.378004
2022-12-03T13:11:04.454Z,31.3767
2022-12-03T13:16:06.315Z,29.868612
2022-12-03T13:21:07.938Z,30.368938
2022-12-03T13:26:26.264Z,30.580814
2022-12-03T13:31:34.299Z,31.103014
2022-12-03T13:36:35.859Z,30.900406
2022-12-03T13:41:37.597Z,31.090652
2022-12-03T13:46:39.458Z,30.89776
2022-12-03T13:51:41.288Z,31.260164
2022-12-03T13:56:44.098Z,31.32329
2022-12-03T14:01:46.144Z,30.98759
2022-12-03T14:06:48.239Z,29.251776
2022-12-03T14:11:50.312Z,30.001498
2022-12-03T14:16:56.693Z,30.342898
2022-12-03T14:22:01.490Z,29.551462
2022-12-03T14:27:03.551Z,28.35522
2022-12-03T14:37:25.517Z,29.05731
2022-12-03T14:42:27.177Z,28.769282
2022-12-03T14:47:28.665Z,28.350388
2022-12-03T14:52:30.371Z,27.720092
2022-12-03T14:57:32.021Z,27.498744
2022-12-03T15:02:33.889Z,28.005244
2022-12-03T15:07:35.733Z,26.32314
2022-12-03T15:12:37.612Z,25.98371
2022-12-03T15:17:39.461Z,26.711122
2022-12-03T15:22:42.916Z,26.566512
2022-12-03T15:27:44.495Z,26.295934
2022-12-03T15:32:46.071Z,26.48329
2022-12-03T15:37:48.036Z,26.583962
2022-12-03T15:42:49.884Z,25.801606
2022-12-03T15:47:51.754Z,25.613328
2022-12-03T15:52:53.741Z,25.918142
2022-12-03T15:57:55.628Z,24.982232
2022-12-03T16:02:57.442Z,24.68518
2022-12-03T16:07:59.643Z,24.453398
2022-12-03T16:13:01.417Z,25.074438
2022-12-03T16:18:03.187Z,23.877246
2022-12-03T16:23:04.836Z,22.679634
2022-12-03T16:28:06.652Z,22.21664
2022-12-03T16:33:08.441Z,21.746766
2022-12-03T16:38:10.491Z,23.128666
2022-12-03T16:43:12.423Z,22.79655
2022-12-03T16:48:14.224Z,22.404552
2022-12-03T16:53:15.719Z,22.205934
2022-12-03T16:58:17.325Z,22.51779
2022-12-03T17:03:19.035Z,21.817762
2022-12-03T17:08:20.820Z,21.745382
2022-12-03T17:13:22.335Z,21.596388
2022-12-03T17:18:23.798Z,21.371282
2022-12-03T17:23:25.660Z,22.148548
2022-12-03T17:28:27.139Z,21.390646
2022-12-03T17:33:28.658Z,22.687858
2022-12-03T17:38:40.153Z,22.111422
2022-12-03T17:43:41.634Z,21.809132
2022-12-03T17:48:43.212Z,22.117216
2022-12-03T17:53:45.007Z,21.851496
2022-12-03T17:58:46.483Z,22.027806
2022-12-03T18:03:48.073Z,20.904054
2022-12-03T18:08:49.771Z,20.931614
2022-12-03T18:13:51.435Z,20.93829
2022-12-03T18:18:56.595Z,20.543076
2022-12-03T18:24:00.126Z,20.316722
2022-12-03T18:29:01.855Z,21.091952
2022-12-03T18:34:03.531Z,20.568926
2022-12-03T18:39:05.328Z,21.317438
2022-12-03T18:44:06.992Z,21.888324
2022-12-03T18:49:08.473Z,21.931394
2022-12-03T18:54:10.142Z,21.343912
2022-12-03T18:59:11.571Z,20.758222
2022-12-03T19:04:13.133Z,19.86784
2022-12-03T19:09:14.707Z,20.789364
2022-12-03T19:14:16.313Z,20.617926
2022-12-03T19:19:18.507Z,20.299624
2022-12-03T19:24:24.830Z,20.01431
2022-12-03T19:29:26.829Z,19.991106
2022-12-03T19:34:28.356Z,20.426296
2022-12-03T19:39:29.815Z,20.573336
2022-12-03T19:44:31.432Z,20.52568
2022-12-03T19:49:32.922Z,20.13702
2022-12-03T19:54:34.572Z,20.532736
2022-12-03T19:59:37.910Z,20.275864
2022-12-03T20:04:39.514Z,19.68001
2022-12-03T20:09:41.059Z,20.133478
2022-12-03T20:14:42.635Z,20.235698
2022-12-03T20:19:44.869Z,19.297158
2022-12-03T20:24:46.739Z,19.728372
2022-12-03T20:29:48.369Z,20.295282
2022-12-03T20:34:50.732Z,20.283802
2022-12-03T20:39:52.697Z,20.551272
2022-12-03T20:44:54.291Z,20.546604
2022-12-03T20:49:56.794Z,19.981838
2022-12-03T20:54:58.879Z,20.38267
2022-12-03T21:00:00.354Z,19.857446
2022-12-03T21:05:01.916Z,19.68651
2022-12-03T21:10:05.812Z,19.443438
2022-12-03T21:15:07.284Z,19.343946
2022-12-03T21:20:08.783Z,19.808446
2022-12-03T21:25:10.602Z,19.539212
2022-12-03T21:30:12.093Z,18.929762
2022-12-03T21:35:13.725Z,18.435938
2022-12-03T21:40:15.346Z,17.886276
2022-12-03T21:45:16.948Z,17.673274
2022-12-03T21:50:21.127Z,18.047468
2022-12-03T21:55:22.988Z,18.713924
2022-12-03T22:00:24.508Z,18.201944
2022-12-03T22:05:26.235Z,18.65126
2022-12-03T22:10:28.144Z,18.189148
2022-12-03T22:15:29.716Z,18.566152
2022-12-03T22:20:31.192Z,18.75196
2022-12-03T22:25:32.824Z,18.267892
2022-12-03T22:30:34.385Z,17.969972
2022-12-03T22:35:36.056Z,17.905612
2022-12-03T22:40:37.848Z,17.900578
2022-12-03T22:45:39.609Z,17.688214
2022-12-03T22:50:41.228Z,18.327992
2022-12-03T22:55:42.885Z,18.02938
2022-12-03T23:00:44.406Z,18.142618
2022-12-03T23:05:46.088Z,18.868848
2022-12-03T23:10:47.811Z,18.614188
2022-12-03T23:15:49.387Z,18.922068
2022-12-03T23:20:51.055Z,18.10309
2022-12-03T23:25:52.930Z,18.163108
2022-12-03T23:30:54.679Z,18.624772
2022-12-03T23:35:56.244Z,18.09716
2022-12-03T23:40:57.824Z,17.707184
2022-12-03T23:45:59.476Z,18.36136
2022-12-03T23:51:01.206Z,17.816636
2022-12-03T23:56:02.946Z,17.823706
